createdAt,value
2023-05-12T00:02:13.650Z,101422.81
2023-05-12T00:07:20.558Z,101412.38
2023-05-12T00:12:28.754Z,101424.53
2023-05-12T00:17:35.273Z,101421.94
2023-05-12T00:22:43.229Z,101424.50
2023-05-12T00:27:51.079Z,101426.22
2023-05-12T00:32:57.766Z,101427.09
2023-05-12T00:38:04.380Z,101431.44
2023-05-12T00:43:12.404Z,101434.97
2023-05-12T00:48:18.839Z,101434.91
2023-05-12T00:53:32.551Z,101437.59
2023-05-12T00:58:47.449Z,101438.47
2023-05-12T01:03:55.561Z,101445.47
2023-05-12T01:09:02.420Z,101449.84
2023-05-12T01:14:10.392Z,101448.13
2023-05-12T01:19:34.877Z,101462.88
2023-05-12T01:24:51.892Z,101451.63
2023-05-12T01:30:03.565Z,101458.56
2023-05-12T01:35:16.036Z,101457.72
2023-05-12T01:40:28.300Z,101465.53
2023-05-12T01:45:39.093Z,101467.28
2023-05-12T01:50:45.821Z,101469.03
2023-05-12T01:55:58.210Z,101465.56
2023-05-12T02:01:07.912Z,101467.31
2023-05-12T02:06:15.303Z,101468.09
2023-05-12T02:11:24.978Z,101469.00
2023-05-12T02:16:32.961Z,101473.31
2023-05-12T02:21:40.279Z,101476.78
2023-05-12T02:26:46.667Z,101476.78
2023-05-12T02:31:55.157Z,101480.22
2023-05-12T02:37:01.771Z,101483.69
2023-05-12T02:42:09.441Z,101484.53
2023-05-12T02:47:17.654Z,101488.81
2023-05-12T02:52:25.758Z,101495.69
2023-05-12T02:57:34.379Z,101495.72
2023-05-12T03:02:43.442Z,101497.41
2023-05-12T03:07:51.948Z,101499.13
2023-05-12T03:13:02.090Z,101500.81
2023-05-12T03:18:09.955Z,101504.22
2023-05-12T03:23:17.197Z,101499.97
2023-05-12T03:28:25.106Z,101501.78
2023-05-12T03:33:33.280Z,101502.63
2023-05-12T03:38:39.784Z,101512.19
2023-05-12T03:43:46.375Z,101505.31
2023-05-12T03:48:54.927Z,101514.06
2023-05-12T03:54:01.149Z,101514.97
2023-05-12T03:59:07.890Z,101513.22
2023-05-12T04:04:18.888Z,101518.41
2023-05-12T04:09:25.412Z,101519.25
2023-05-12T04:14:42.203Z,101518.31
2023-05-12T04:19:52.976Z,101527.84
2023-05-12T04:24:59.785Z,101527.75
2023-05-12T04:30:07.951Z,101537.25
2023-05-12T04:35:18.198Z,101531.03
2023-05-12T04:40:26.615Z,101536.13
2023-05-12T04:45:33.299Z,101542.03
2023-05-12T04:50:41.842Z,101536.66
2023-05-12T04:55:50.400Z,101542.56
2023-05-12T05:00:57.374Z,101549.31
2023-05-12T05:06:05.592Z,101546.53
2023-05-12T05:11:12.518Z,101556.81
2023-05-12T05:16:19.269Z,101549.59
2023-05-12T05:21:29.129Z,101558.06
2023-05-12T05:26:36.071Z,101551.84
2023-05-12T05:31:42.982Z,101552.47
2023-05-12T05:36:52.145Z,101556.63
2023-05-12T05:41:59.024Z,101552.97
2023-05-12T05:47:06.421Z,101551.84
2023-05-12T05:52:15.526Z,101561.00
2023-05-12T05:57:23.364Z,101563.47
2023-05-12T06:02:30.577Z,101558.81
2023-05-12T06:07:39.781Z,101563.78
2023-05-12T06:12:46.362Z,101565.19
2023-05-12T06:17:52.929Z,101572.78
2023-05-12T06:23:02.017Z,101580.19
2023-05-12T06:28:08.895Z,101568.50
2023-05-12T06:33:15.343Z,101580.31
2023-05-12T06:38:23.222Z,101583.44
2023-05-12T06:43:30.001Z,101577.69
2023-05-12T06:48:36.713Z,101580.91
2023-05-12T06:53:45.239Z,101580.88
2023-05-12T06:58:52.900Z,101572.69
2023-05-12T07:04:01.263Z,101570.59
2023-05-12T07:09:09.463Z,101569.25
2023-05-12T07:14:15.913Z,101573.19
2023-05-12T07:19:23.476Z,101568.34
2023-05-12T07:24:35.528Z,101564.97
2023-05-12T07:29:41.878Z,101567.06
2023-05-12T07:34:48.063Z,101570.97
2023-05-12T07:39:56.111Z,101564.63
2023-05-12T07:45:03.988Z,101568.69
2023-05-12T07:50:12.392Z,101563.16
2023-05-12T07:55:22.319Z,101578.06
2023-05-12T08:00:29.177Z,101571.03
2023-05-12T08:05:36.013Z,101563.09
2023-05-12T08:10:43.828Z,101574.25
2023-05-12T08:15:52.097Z,101563.53
2023-05-12T08:20:58.754Z,101563.53
2023-05-12T08:26:07.027Z,101568.66
2023-05-12T08:31:13.733Z,101561.66
2023-05-12T08:36:20.208Z,101567.81
2023-05-12T08:41:41.952Z,101564.66
2023-05-12T08:46:49.648Z,101552.41
2023-05-12T08:51:58.635Z,101565.28
2023-05-12T08:57:10.466Z,101558.00
2023-05-12T09:02:19.208Z,101564.91
2023-05-12T09:07:27.081Z,101556.50
2023-05-12T09:12:39.394Z,101563.88
2023-05-12T09:17:45.973Z,101559.78
2023-05-12T09:22:52.616Z,101551.22
2023-05-12T09:28:00.498Z,101556.91
2023-05-12T09:33:10.560Z,101553.22
2023-05-12T09:38:17.299Z,101552.50
2023-05-12T09:43:25.473Z,101540.09
2023-05-12T09:48:32.994Z,101555.38
2023-05-12T09:53:45.189Z,101541.31
2023-05-12T09:58:53.090Z,101540.56
2023-05-12T10:04:01.331Z,101554.63
2023-05-12T10:09:17.830Z,101540.00
2023-05-12T10:14:26.649Z,101518.59
2023-05-12T10:19:34.488Z,101531.56
2023-05-12T10:24:43.574Z,101536.22
2023-05-12T10:29:53.630Z,101532.28
2023-05-12T10:35:10.817Z,101522.13
2023-05-12T10:40:27.152Z,101528.19
2023-05-12T10:45:39.528Z,101522.66
2023-05-12T10:50:55.769Z,101525.16
2023-05-12T10:56:06.960Z,101531.69
2023-05-12T11:01:16.808Z,101509.66
2023-05-12T11:06:24.262Z,101507.66
2023-05-12T11:11:32.132Z,101498.34
2023-05-12T11:16:49.846Z,101508.28
2023-05-12T11:21:57.067Z,101511.34
2023-05-12T11:27:04.476Z,101512.47
2023-05-12T11:32:15.314Z,101515.03
2023-05-12T11:37:21.748Z,101504.06
2023-05-12T11:42:28.180Z,101499.81
2023-05-12T11:47:36.337Z,101511.78
2023-05-12T11:52:43.195Z,101491.91
2023-05-12T11:58:02.461Z,101496.72
2023-05-12T12:03:16.144Z,101503.28
2023-05-12T12:08:22.917Z,101497.63
2023-05-12T12:13:30.933Z,101495.28
2023-05-12T12:18:38.940Z,101497.00
2023-05-12T12:23:51.233Z,101503.41
2023-05-12T12:28:58.354Z,101501.47
2023-05-12T12:34:06.796Z,101488.53
2023-05-12T12:39:13.903Z,101500.25
2023-05-12T12:44:23.186Z,101483.25
2023-05-12T12:49:31.076Z,101486.50
2023-05-12T12:54:37.940Z,101489.53
2023-05-12T12:59:44.401Z,101473.16
2023-05-12T13:04:52.558Z,101477.13
2023-05-12T13:09:59.615Z,101466.53
2023-05-12T13:15:07.661Z,101455.34
2023-05-12T13:20:16.382Z,101443.81
2023-05-12T13:25:22.987Z,101460.94
2023-05-12T13:30:29.764Z,101451.88
2023-05-12T13:35:37.661Z,101456.03
2023-05-12T13:40:44.060Z,101448.84
2023-05-12T13:45:50.941Z,101437.41
2023-05-12T13:50:58.969Z,101442.84
2023-05-12T13:56:06.089Z,101446.41
2023-05-12T14:01:12.968Z,101445.88
2023-05-12T14:06:20.711Z,101450.09
2023-05-12T14:11:27.279Z,101441.00
2023-05-12T14:16:33.751Z,101437.31
2023-05-12T14:21:42.330Z,101444.91
2023-05-12T14:26:48.789Z,101438.28
2023-05-12T14:31:55.656Z,101424.28
2023-05-12T14:37:03.802Z,101442.00
2023-05-12T14:42:10.463Z,101440.00
2023-05-12T14:47:17.125Z,101435.00
2023-05-12T14:52:26.903Z,101437.34
2023-05-12T14:57:36.062Z,101434.50
2023-05-12T15:02:45.093Z,101436.84
2023-05-12T15:07:53.018Z,101430.47
2023-05-12T15:12:59.538Z,101414.66
2023-05-12T15:18:06.102Z,101432.56
2023-05-12T15:23:13.924Z,101430.78
2023-05-12T15:28:22.037Z,101435.91
2023-05-12T15:33:29.858Z,101432.09
2023-05-12T15:38:38.477Z,101426.03
2023-05-12T15:43:45.134Z,101428.69
2023-05-12T15:48:53.741Z,101436.69
2023-05-12T15:54:03.072Z,101433.31
2023-05-12T15:59:10.207Z,101424.06
2023-05-12T16:04:17.691Z,101421.63
2023-05-12T16:09:26.902Z,101419.44
2023-05-12T16:14:33.497Z,101412.63
2023-05-12T16:19:40.119Z,101420.09
2023-05-12T16:24:49.096Z,101417.09
2023-05-12T16:29:55.889Z,101421.44
2023-05-12T16:35:02.600Z,101423.50
2023-05-12T16:40:13.247Z,101431.31
2023-05-12T16:45:21.712Z,101435.28
2023-05-12T16:50:28.529Z,101431.28
2023-05-12T16:55:36.552Z,101433.63
2023-05-12T17:00:43.313Z,101438.41
2023-05-12T17:05:52.079Z,101439.09
2023-05-12T17:11:00.019Z,101436.13
2023-05-12T17:16:08.227Z,101444.91
2023-05-12T17:21:14.563Z,101449.44
2023-05-12T17:26:22.894Z,101452.97
2023-05-12T17:31:29.447Z,101452.88
2023-05-12T17:36:36.447Z,101454.19
2023-05-12T17:41:44.478Z,101457.50
2023-05-12T17:46:51.275Z,101460.63
2023-05-12T17:51:58.130Z,101463.03
2023-05-12T17:57:07.885Z,101463.69
2023-05-12T18:02:14.979Z,101475.53
2023-05-12T18:07:22.798Z,101469.94
2023-05-12T18:12:33.328Z,101478.59
2023-05-12T18:17:40.467Z,101480.81
2023-05-12T18:22:47.602Z,101484.44
2023-05-12T18:27:56.002Z,101497.75
2023-05-12T18:33:02.701Z,101499.00
2023-05-12T18:38:09.561Z,101503.09
2023-05-12T18:43:18.137Z,101501.66
2023-05-12T18:48:25.097Z,101510.47
2023-05-12T18:53:32.180Z,101514.41
2023-05-12T18:58:41.998Z,101506.63
2023-05-12T19:03:49.052Z,101520.44
2023-05-12T19:08:56.624Z,101526.41
2023-05-12T19:14:05.927Z,101521.50
2023-05-12T19:19:13.536Z,101523.25
2023-05-12T19:24:20.726Z,101530.81
2023-05-12T19:29:29.013Z,101542.53
2023-05-12T19:34:37.271Z,101542.09
2023-05-12T19:39:44.200Z,101535.41
2023-05-12T19:44:53.481Z,101541.16
2023-05-12T19:50:00.297Z,101556.41
2023-05-12T19:55:08.831Z,101550.31
2023-05-12T20:00:19.266Z,101548.75
2023-05-12T20:05:27.869Z,101551.56
2023-05-12T20:10:34.885Z,101544.00
2023-05-12T20:15:44.514Z,101551.97
2023-05-12T20:20:52.031Z,101545.34
2023-05-12T20:25:59.154Z,101548.22
2023-05-12T20:31:08.907Z,101542.34
2023-05-12T20:36:16.177Z,101549.47
2023-05-12T20:41:23.514Z,101558.41
2023-05-12T20:46:31.926Z,101563.78
2023-05-12T20:51:40.241Z,101554.41
2023-05-12T20:56:47.322Z,101556.28
2023-05-12T21:01:55.723Z,101567.63
2023-05-12T21:07:02.781Z,101564.25
2023-05-12T21:12:10.918Z,101561.75
2023-05-12T21:17:20.030Z,101563.63
2023-05-12T21:22:28.101Z,101563.63
2023-05-12T21:27:36.677Z,101571.56
2023-05-12T21:32:45.166Z,101573.41
2023-05-12T21:37:52.044Z,101575.31
2023-05-12T21:42:58.935Z,101571.84
2023-05-12T21:48:07.883Z,101576.22
2023-05-12T21:53:15.208Z,101579.78
2023-05-12T21:58:23.927Z,101580.69
2023-05-12T22:03:32.477Z,101578.16
2023-05-12T22:08:39.479Z,101579.00
2023-05-12T22:13:46.142Z,101576.47
2023-05-12T22:18:54.577Z,101582.50
2023-05-12T22:24:01.572Z,101579.06
2023-05-12T22:29:08.539Z,101592.09
2023-05-12T22:34:16.725Z,101592.09
2023-05-12T22:39:23.967Z,101596.47
2023-05-12T22:44:31.188Z,101593.88
2023-05-12T22:49:39.414Z,101585.22
2023-05-12T22:54:45.939Z,101587.81
2023-05-12T22:59:53.351Z,101583.44
2023-05-12T23:05:01.903Z,101587.78
2023-05-12T23:10:11.564Z,101587.78
2023-05-12T23:15:18.468Z,101585.16
2023-05-12T23:20:26.942Z,101582.56
2023-05-12T23:25:35.559Z,101584.31
2023-05-12T23:30:42.462Z,101585.19
2023-05-12T23:35:50.611Z,101584.31
2023-05-12T23:40:57.006Z,101588.66
2023-05-12T23:46:03.736Z,101573.06
2023-05-12T23:51:11.843Z,101567.84
2023-05-12T23:56:18.341Z,101568.72
